createdAt,value
2018-03-30T00:00:26.927Z,3.25
2018-03-30T00:01:26.914Z,3.18
2018-03-30T00:02:26.927Z,3.01
2018-03-30T00:03:26.951Z,2.98
2018-03-30T00:04:26.964Z,2.87
2018-03-30T00:05:26.981Z,2.79
2018-03-30T00:06:26.976Z,2.67
2018-03-30T00:07:27.003Z,2.69
2018-03-30T00:08:27.000Z,2.86
2018-03-30T00:09:27.018Z,2.98
2018-03-30T00:10:27.034Z,3.11
2018-03-30T00:11:27.044Z,2.93
2018-03-30T00:12:27.058Z,2.97
2018-03-30T00:13:27.069Z,3.03
2018-03-30T00:14:27.080Z,3.13
2018-03-30T00:15:27.129Z,3.31
2018-03-30T00:16:27.106Z,3.31
2018-03-30T00:17:27.122Z,3.11
2018-03-30T00:18:27.141Z,3.00
2018-03-30T00:19:27.152Z,3.16
2018-03-30T00:20:27.181Z,3.31
2018-03-30T00:21:27.177Z,3.31
2018-03-30T00:22:27.191Z,3.22
2018-03-30T00:23:27.199Z,3.14
2018-03-30T00:24:27.214Z,2.97
2018-03-30T00:25:27.233Z,2.90
2018-03-30T00:26:27.248Z,2.92
2018-03-30T00:27:27.266Z,3.04
2018-03-30T00:28:27.274Z,3.03
2018-03-30T00:29:27.283Z,3.07
2018-03-30T00:30:27.301Z,3.25
2018-03-30T00:31:27.302Z,3.31
2018-03-30T00:32:27.326Z,3.44
2018-03-30T00:33:27.384Z,3.37
2018-03-30T00:34:27.359Z,3.45
2018-03-30T00:35:27.370Z,3.40
2018-03-30T00:36:27.367Z,3.51
2018-03-30T00:37:27.381Z,3.53
2018-03-30T00:38:27.394Z,3.53
2018-03-30T00:39:27.421Z,3.60
2018-03-30T00:40:27.428Z,3.63
2018-03-30T00:41:27.436Z,3.66
2018-03-30T00:42:27.453Z,3.56
2018-03-30T00:43:27.469Z,3.55
2018-03-30T00:44:27.470Z,3.51
2018-03-30T00:45:27.485Z,3.62
2018-03-30T00:46:27.495Z,3.55
2018-03-30T00:47:27.523Z,3.45
2018-03-30T00:48:27.521Z,3.45
2018-03-30T00:49:27.545Z,3.59
2018-03-30T00:50:27.554Z,3.62
2018-03-30T00:51:27.568Z,3.63
2018-03-30T00:52:27.575Z,3.55
2018-03-30T00:53:27.597Z,3.62
2018-03-30T00:54:27.611Z,3.53
2018-03-30T00:55:27.627Z,3.51
2018-03-30T00:56:27.634Z,3.50
2018-03-30T00:57:27.658Z,3.53
2018-03-30T00:58:27.655Z,3.55
2018-03-30T00:59:27.677Z,3.44
2018-03-30T01:00:27.691Z,3.48
2018-03-30T01:01:27.702Z,3.34
2018-03-30T01:02:27.709Z,3.32
2018-03-30T01:03:27.734Z,3.42
2018-03-30T01:04:27.737Z,3.36
2018-03-30T01:05:27.756Z,3.36
2018-03-30T01:06:27.756Z,3.36
2018-03-30T01:07:27.778Z,3.37
2018-03-30T01:08:27.788Z,3.36
2018-03-30T01:09:27.797Z,3.29
2018-03-30T01:10:27.817Z,3.37
2018-03-30T01:11:27.833Z,3.34
2018-03-30T01:12:27.839Z,3.23
2018-03-30T01:13:27.852Z,3.23
2018-03-30T01:14:27.874Z,3.22
2018-03-30T01:15:27.916Z,3.13
2018-03-30T01:16:27.897Z,3.22
2018-03-30T01:17:27.910Z,3.22
2018-03-30T01:18:27.911Z,3.25
2018-03-30T01:19:27.927Z,3.25
2018-03-30T01:20:27.946Z,3.21
2018-03-30T01:21:27.962Z,3.22
2018-03-30T01:22:27.968Z,3.23
2018-03-30T01:23:27.984Z,3.14
2018-03-30T01:24:27.998Z,3.08
2018-03-30T01:25:28.005Z,3.11
2018-03-30T01:26:28.019Z,3.07
2018-03-30T01:27:28.035Z,3.18
2018-03-30T01:28:28.045Z,3.10
2018-03-30T01:29:28.059Z,2.98
2018-03-30T01:30:28.086Z,2.97
2018-03-30T01:31:28.081Z,2.87
2018-03-30T01:32:28.097Z,2.89
2018-03-30T01:33:28.140Z,2.90
2018-03-30T01:34:28.134Z,2.83
2018-03-30T01:35:28.163Z,2.86
2018-03-30T01:36:28.170Z,2.93
2018-03-30T01:37:28.157Z,2.79
2018-03-30T01:38:28.176Z,2.79
2018-03-30T01:39:28.226Z,2.72
2018-03-30T01:40:28.206Z,2.75
2018-03-30T01:41:28.218Z,2.75
2018-03-30T01:42:28.230Z,2.49
2018-03-30T01:43:28.241Z,2.47
2018-03-30T01:44:28.255Z,2.28
2018-03-30T01:45:28.269Z,2.36
2018-03-30T01:46:28.292Z,2.36
2018-03-30T01:47:28.296Z,2.24
2018-03-30T01:48:28.301Z,2.26
2018-03-30T01:49:28.312Z,2.15
2018-03-30T01:50:28.331Z,2.22
2018-03-30T01:51:28.343Z,2.15
2018-03-30T01:52:28.414Z,2.15
2018-03-30T01:53:28.370Z,2.08
2018-03-30T01:54:28.390Z,2.14
2018-03-30T01:55:28.387Z,2.11
2018-03-30T01:56:28.398Z,2.13
2018-03-30T01:57:28.413Z,2.08
2018-03-30T01:58:28.427Z,2.08
2018-03-30T01:59:28.436Z,2.13
2018-03-30T02:00:28.482Z,2.31
2018-03-30T02:01:28.471Z,2.18
2018-03-30T02:02:28.482Z,2.08
2018-03-30T02:03:28.490Z,2.07
2018-03-30T02:04:28.504Z,1.97
2018-03-30T02:05:28.533Z,2.08
2018-03-30T02:06:28.523Z,2.15
2018-03-30T02:07:28.570Z,2.07
2018-03-30T02:08:28.554Z,2.13
2018-03-30T02:09:28.620Z,2.28
2018-03-30T02:10:28.573Z,2.26
2018-03-30T02:11:28.583Z,2.28
2018-03-30T02:12:28.609Z,2.26
2018-03-30T02:13:28.615Z,2.29
2018-03-30T02:14:28.623Z,2.26
2018-03-30T02:15:28.636Z,2.17
2018-03-30T02:16:28.694Z,2.22
2018-03-30T02:17:28.668Z,2.28
2018-03-30T02:18:28.671Z,2.28
2018-03-30T02:19:28.711Z,2.35
2018-03-30T02:20:28.696Z,2.29
2018-03-30T02:21:28.725Z,2.32
2018-03-30T02:22:28.726Z,2.32
2018-03-30T02:23:28.740Z,2.24
2018-03-30T02:24:28.755Z,2.20
2018-03-30T02:25:28.761Z,2.35
2018-03-30T02:26:28.779Z,2.32
2018-03-30T02:27:28.786Z,2.31
2018-03-30T02:28:28.815Z,2.31
2018-03-30T02:29:28.815Z,2.39
2018-03-30T02:30:28.821Z,2.26
2018-03-30T02:31:28.836Z,2.36
2018-03-30T02:32:28.873Z,2.38
2018-03-30T02:33:28.866Z,2.35
2018-03-30T02:34:28.878Z,2.35
2018-03-30T02:35:28.883Z,2.31
2018-03-30T02:36:28.910Z,2.25
2018-03-30T02:37:28.922Z,2.28
2018-03-30T02:38:28.923Z,2.26
2018-03-30T02:39:28.940Z,2.26
2018-03-30T02:40:28.948Z,2.32
2018-03-30T02:41:28.959Z,2.31
2018-03-30T02:42:28.999Z,2.32
2018-03-30T02:43:28.995Z,2.29
2018-03-30T02:44:28.996Z,2.24
2018-03-30T02:45:29.035Z,2.26
2018-03-30T02:46:29.036Z,2.29
2018-03-30T02:47:29.035Z,2.31
2018-03-30T02:48:29.051Z,2.15
2018-03-30T02:49:29.056Z,2.15
2018-03-30T02:50:29.074Z,2.20
2018-03-30T02:51:29.105Z,2.22
2018-03-30T02:52:29.103Z,2.20
2018-03-30T02:53:29.117Z,2.18
2018-03-30T02:54:29.139Z,2.28
2018-03-30T02:55:29.138Z,2.20
2018-03-30T02:56:29.146Z,2.28
2018-03-30T02:57:29.165Z,2.24
2018-03-30T02:58:29.202Z,2.26
2018-03-30T02:59:29.202Z,2.35
2018-03-30T03:00:29.192Z,2.24
2018-03-30T03:01:29.207Z,2.26
2018-03-30T03:02:29.223Z,2.18
2018-03-30T03:03:29.230Z,2.31
2018-03-30T03:04:29.250Z,2.18
2018-03-30T03:05:29.254Z,2.13
2018-03-30T03:06:29.277Z,2.15
2018-03-30T03:07:29.283Z,2.14
2018-03-30T03:08:29.319Z,2.18
2018-03-30T03:09:29.311Z,2.25
2018-03-30T03:10:29.313Z,2.20
2018-03-30T03:11:29.336Z,2.24
2018-03-30T03:12:29.353Z,2.08
2018-03-30T03:13:29.351Z,2.18
2018-03-30T03:14:29.372Z,2.15
2018-03-30T03:15:29.391Z,2.26
2018-03-30T03:16:29.391Z,2.28
2018-03-30T03:17:29.403Z,2.29
2018-03-30T03:18:29.427Z,2.26
2018-03-30T03:19:29.432Z,2.24
2018-03-30T03:20:29.442Z,2.26
2018-03-30T03:21:29.455Z,2.29
2018-03-30T03:22:29.479Z,2.29
2018-03-30T03:23:29.492Z,2.25
2018-03-30T03:24:29.485Z,2.31
2018-03-30T03:25:29.500Z,2.11
2018-03-30T03:26:29.567Z,2.08
2018-03-30T03:27:29.530Z,2.08
2018-03-30T03:28:29.546Z,2.02
2018-03-30T03:29:29.563Z,2.02
2018-03-30T03:30:29.562Z,2.08
2018-03-30T03:31:29.579Z,2.08
2018-03-30T03:32:29.589Z,2.08
2018-03-30T03:33:29.608Z,2.15
2018-03-30T03:34:29.618Z,2.08
2018-03-30T03:35:29.623Z,2.14
2018-03-30T03:36:29.638Z,2.14
2018-03-30T03:37:29.670Z,2.14
2018-03-30T03:38:29.666Z,2.10
2018-03-30T03:39:29.695Z,2.11
2018-03-30T03:40:29.685Z,2.17
2018-03-30T03:41:29.700Z,2.10
2018-03-30T03:42:29.716Z,2.11
2018-03-30T03:43:29.724Z,2.08
2018-03-30T03:44:29.743Z,2.04
2018-03-30T03:45:29.763Z,2.07
2018-03-30T03:46:29.772Z,2.10
2018-03-30T03:47:29.778Z,2.14
2018-03-30T03:48:29.802Z,1.95
2018-03-30T03:49:29.795Z,1.99
2018-03-30T03:50:29.835Z,1.99
2018-03-30T03:51:29.840Z,1.71
2018-03-30T03:52:29.836Z,1.67
2018-03-30T03:53:29.847Z,1.63
2018-03-30T03:54:29.868Z,1.68
2018-03-30T03:55:29.871Z,1.68
2018-03-30T03:56:29.891Z,1.77
2018-03-30T03:57:29.906Z,1.78
2018-03-30T03:58:29.905Z,1.80
2018-03-30T03:59:29.927Z,1.91
2018-03-30T04:00:29.960Z,1.99
2018-03-30T04:01:29.955Z,1.97
2018-03-30T04:02:29.973Z,2.08
2018-03-30T04:03:29.981Z,1.87
2018-03-30T04:04:29.979Z,1.81
2018-03-30T04:05:29.997Z,1.78
2018-03-30T04:06:30.020Z,1.59
2018-03-30T04:07:30.021Z,1.56
2018-03-30T04:08:30.030Z,1.53
2018-03-30T04:09:30.044Z,1.62
2018-03-30T04:10:30.059Z,1.63
2018-03-30T04:11:30.072Z,1.56
2018-03-30T04:12:30.111Z,1.67
2018-03-30T04:13:30.092Z,1.58
2018-03-30T04:14:30.121Z,1.62
2018-03-30T04:15:30.120Z,1.53
2018-03-30T04:16:30.135Z,1.62
2018-03-30T04:17:30.148Z,1.60
2018-03-30T04:18:30.175Z,1.67
2018-03-30T04:19:30.265Z,1.73
2018-03-30T04:20:30.188Z,1.84
2018-03-30T04:21:30.195Z,1.70
2018-03-30T04:22:30.261Z,1.84
2018-03-30T04:23:30.250Z,1.89
2018-03-30T04:24:30.240Z,1.88
2018-03-30T04:25:30.241Z,1.92
2018-03-30T04:26:30.249Z,1.91
2018-03-30T04:27:30.273Z,1.92
2018-03-30T04:28:30.293Z,1.97
2018-03-30T04:29:30.295Z,2.10
2018-03-30T04:30:30.305Z,2.06
2018-03-30T04:31:30.330Z,2.08
2018-03-30T04:32:30.328Z,2.10
2018-03-30T04:33:30.337Z,2.15
2018-03-30T04:34:30.380Z,2.14
2018-03-30T04:35:30.366Z,2.17
2018-03-30T04:36:30.396Z,2.24
2018-03-30T04:37:30.394Z,2.18
2018-03-30T04:38:30.410Z,2.18
2018-03-30T04:39:30.423Z,2.24
2018-03-30T04:40:30.466Z,2.28
2018-03-30T04:41:30.443Z,2.17
2018-03-30T04:42:30.453Z,2.08
2018-03-30T04:43:30.480Z,2.10
2018-03-30T04:44:30.480Z,2.15
2018-03-30T04:45:30.491Z,2.10
2018-03-30T04:46:30.506Z,2.08
2018-03-30T04:47:30.528Z,1.92
2018-03-30T04:48:30.523Z,2.04
2018-03-30T04:49:30.534Z,1.88
2018-03-30T04:50:30.552Z,1.91
2018-03-30T04:51:30.560Z,1.89
2018-03-30T04:52:30.586Z,1.89
2018-03-30T04:53:30.590Z,1.89
2018-03-30T04:54:30.600Z,1.95
2018-03-30T04:55:30.618Z,2.10
2018-03-30T04:56:30.621Z,2.08
2018-03-30T04:57:30.641Z,2.15
2018-03-30T04:58:30.670Z,2.14
2018-03-30T04:59:30.660Z,2.24
2018-03-30T05:00:30.674Z,2.33
2018-03-30T05:01:30.709Z,2.13
2018-03-30T05:02:30.694Z,2.07
2018-03-30T05:03:30.713Z,1.99
2018-03-30T05:04:30.755Z,1.94
2018-03-30T05:05:30.789Z,2.02
2018-03-30T05:06:30.745Z,2.06
2018-03-30T05:07:30.764Z,2.13
2018-03-30T05:08:30.774Z,2.11
2018-03-30T05:09:30.788Z,2.06
2018-03-30T05:10:30.794Z,2.06
2018-03-30T05:11:30.808Z,1.97
2018-03-30T05:12:30.838Z,1.97
2018-03-30T05:13:30.852Z,1.87
2018-03-30T05:14:30.856Z,2.10
2018-03-30T05:15:30.897Z,2.13
2018-03-30T05:16:30.894Z,2.28
2018-03-30T05:17:30.883Z,2.32
2018-03-30T05:18:30.902Z,2.42
2018-03-30T05:19:30.911Z,2.38
2018-03-30T05:20:30.929Z,2.28
2018-03-30T05:21:30.967Z,2.29
2018-03-30T05:22:31.123Z,2.31
2018-03-30T05:23:30.956Z,2.43
2018-03-30T05:24:30.987Z,2.51
2018-03-30T05:25:30.986Z,2.50
2018-03-30T05:26:31.001Z,2.65
2018-03-30T05:27:31.029Z,2.68
2018-03-30T05:28:31.065Z,2.69
2018-03-30T05:29:31.123Z,2.71
2018-03-30T05:30:31.091Z,2.72
2018-03-30T05:31:31.080Z,2.72
2018-03-30T05:32:31.138Z,2.80
2018-03-30T05:33:31.142Z,2.64
2018-03-30T05:34:31.144Z,2.67
2018-03-30T05:35:31.106Z,2.64
2018-03-30T05:36:31.197Z,2.65
2018-03-30T05:37:31.145Z,2.71
2018-03-30T05:38:31.152Z,2.74
2018-03-30T05:39:31.218Z,2.72
2018-03-30T05:40:31.178Z,2.89
2018-03-30T05:41:31.198Z,2.87
2018-03-30T05:42:31.233Z,2.89
2018-03-30T05:43:31.229Z,2.87
2018-03-30T05:44:31.223Z,2.80
2018-03-30T05:45:31.270Z,2.80
2018-03-30T05:46:31.271Z,2.72
2018-03-30T05:47:31.296Z,2.80
2018-03-30T05:48:31.271Z,2.68
2018-03-30T05:49:31.285Z,2.71
2018-03-30T05:50:31.301Z,2.62
2018-03-30T05:51:31.340Z,2.62
2018-03-30T05:52:31.327Z,2.85
2018-03-30T05:53:31.349Z,2.92
2018-03-30T05:54:31.355Z,2.77
2018-03-30T05:55:31.389Z,2.79
2018-03-30T05:56:31.373Z,2.86
2018-03-30T05:57:31.409Z,2.90
2018-03-30T05:58:31.401Z,2.82
2018-03-30T05:59:31.428Z,2.86
2018-03-30T06:00:31.449Z,2.92
2018-03-30T06:01:31.442Z,2.85
2018-03-30T06:02:31.465Z,2.75
2018-03-30T06:03:31.462Z,2.74
2018-03-30T06:04:31.480Z,2.74
2018-03-30T06:05:31.489Z,2.72
2018-03-30T06:06:31.538Z,2.77
2018-03-30T06:07:31.541Z,2.82
2018-03-30T06:08:31.529Z,2.85
2018-03-30T06:09:31.541Z,2.92
2018-03-30T06:10:31.553Z,2.87
2018-03-30T06:11:31.571Z,2.87
2018-03-30T06:12:31.592Z,2.90
2018-03-30T06:13:31.601Z,2.90
2018-03-30T06:14:31.611Z,2.61
2018-03-30T06:15:31.617Z,2.50
2018-03-30T06:16:31.664Z,2.54
2018-03-30T06:17:31.638Z,2.53
2018-03-30T06:18:31.694Z,2.72
2018-03-30T06:19:31.725Z,2.90
2018-03-30T06:20:31.678Z,2.83
2018-03-30T06:21:31.700Z,2.83
2018-03-30T06:22:31.705Z,2.87
2018-03-30T06:23:31.720Z,3.04
2018-03-30T06:24:31.735Z,2.87
2018-03-30T06:25:31.747Z,2.87
2018-03-30T06:26:31.755Z,2.90
2018-03-30T06:27:31.769Z,2.83
2018-03-30T06:28:31.787Z,2.93
2018-03-30T06:29:31.807Z,3.11
2018-03-30T06:30:31.821Z,3.07
2018-03-30T06:31:31.821Z,3.05
2018-03-30T06:32:31.857Z,2.98
2018-03-30T06:33:31.851Z,3.10
2018-03-30T06:34:31.873Z,3.19
2018-03-30T06:35:31.888Z,3.44
2018-03-30T06:36:31.887Z,3.63
2018-03-30T06:37:31.904Z,3.83
2018-03-30T06:38:31.930Z,4.04
2018-03-30T06:39:31.930Z,3.98
2018-03-30T06:40:31.942Z,3.96
2018-03-30T06:41:31.948Z,3.94
2018-03-30T06:42:31.972Z,3.98
2018-03-30T06:43:31.983Z,4.01
2018-03-30T06:44:31.991Z,4.12
2018-03-30T06:45:32.009Z,4.16
2018-03-30T06:46:32.012Z,3.70
2018-03-30T06:47:32.063Z,3.60
2018-03-30T06:48:32.053Z,3.62
2018-03-30T06:49:32.098Z,3.51
2018-03-30T06:50:32.090Z,3.34
2018-03-30T06:51:32.095Z,3.65
2018-03-30T06:52:32.106Z,3.73
2018-03-30T06:53:32.123Z,3.92
2018-03-30T06:54:32.242Z,4.23
2018-03-30T06:55:32.304Z,4.37
2018-03-30T06:56:33.053Z,4.41
2018-03-30T06:57:32.810Z,4.45
2018-03-30T06:58:32.174Z,4.49
2018-03-30T06:59:32.196Z,4.45
2018-03-30T07:00:32.471Z,4.44
2018-03-30T07:01:32.224Z,4.56
2018-03-30T07:02:32.372Z,4.52
2018-03-30T07:03:32.266Z,4.58
2018-03-30T07:04:32.277Z,4.78
2018-03-30T07:05:32.273Z,4.59
2018-03-30T07:06:32.685Z,4.45
2018-03-30T07:07:32.840Z,4.42
2018-03-30T07:08:33.275Z,4.56
2018-03-30T07:09:32.842Z,4.73
2018-03-30T07:10:32.365Z,4.77
2018-03-30T07:11:32.554Z,5.17
2018-03-30T07:12:32.535Z,5.41
2018-03-30T07:13:32.705Z,5.65
2018-03-30T07:14:32.686Z,5.59
2018-03-30T07:15:32.631Z,6.11
2018-03-30T07:16:32.504Z,6.92
2018-03-30T07:17:32.452Z,6.93
2018-03-30T07:18:32.463Z,6.48
2018-03-30T07:19:32.492Z,6.42
2018-03-30T07:20:32.513Z,6.36
2018-03-30T07:21:32.576Z,6.30
2018-03-30T07:22:32.605Z,6.72
2018-03-30T07:23:32.607Z,6.92
2018-03-30T07:24:32.565Z,6.92
2018-03-30T07:25:32.597Z,7.31
2018-03-30T07:26:32.592Z,7.38
2018-03-30T07:27:32.622Z,7.79
2018-03-30T07:28:32.672Z,8.71
2018-03-30T07:29:32.633Z,9.36
2018-03-30T07:30:32.663Z,9.86
2018-03-30T07:31:32.668Z,9.91
2018-03-30T07:32:32.691Z,10.12
2018-03-30T07:33:32.703Z,10.33
2018-03-30T07:34:32.721Z,10.20
2018-03-30T07:35:32.763Z,9.54
2018-03-30T07:36:32.762Z,8.73
2018-03-30T07:37:32.774Z,7.85
2018-03-30T07:38:32.792Z,7.47
2018-03-30T07:39:32.842Z,7.31
2018-03-30T07:40:32.889Z,7.24
2018-03-30T07:41:32.850Z,7.47
2018-03-30T07:42:32.862Z,7.50
2018-03-30T07:43:32.887Z,8.00
2018-03-30T07:44:32.907Z,8.18
2018-03-30T07:45:32.938Z,8.46
2018-03-30T07:46:32.935Z,9.40
2018-03-30T07:47:32.953Z,9.89
2018-03-30T07:48:32.978Z,9.77
2018-03-30T07:49:32.986Z,10.67
2018-03-30T07:50:32.999Z,11.27
2018-03-30T07:51:33.021Z,11.55
2018-03-30T07:52:33.044Z,12.07
2018-03-30T07:53:33.062Z,12.32
2018-03-30T07:54:33.079Z,12.91
2018-03-30T07:55:33.118Z,12.86
2018-03-30T07:56:33.120Z,12.98
2018-03-30T07:57:33.131Z,13.25
2018-03-30T07:58:33.144Z,13.86
2018-03-30T07:59:33.182Z,12.62
2018-03-30T08:00:33.189Z,11.57
2018-03-30T08:01:33.207Z,11.84
2018-03-30T08:02:33.241Z,12.45
2018-03-30T08:03:33.276Z,12.62
2018-03-30T08:04:33.272Z,11.90
2018-03-30T08:05:33.291Z,11.51
2018-03-30T08:06:33.303Z,11.05
2018-03-30T08:07:33.331Z,11.15
2018-03-30T08:08:33.345Z,11.55
2018-03-30T08:09:33.362Z,12.02
2018-03-30T08:10:33.413Z,12.10
2018-03-30T08:11:33.464Z,12.67
2018-03-30T08:12:33.422Z,13.27
2018-03-30T08:13:33.443Z,14.14
2018-03-30T08:14:33.464Z,14.54
2018-03-30T08:15:33.527Z,15.59
2018-03-30T08:16:33.508Z,15.97
2018-03-30T08:17:33.524Z,16.16
2018-03-30T08:18:33.540Z,15.70
2018-03-30T08:19:33.582Z,15.77
2018-03-30T08:20:33.597Z,15.27
2018-03-30T08:21:33.603Z,14.36
2018-03-30T08:22:33.639Z,14.36
2018-03-30T08:23:33.662Z,15.35
2018-03-30T08:24:33.682Z,15.40
2018-03-30T08:25:33.698Z,14.85
2018-03-30T08:26:33.723Z,14.30
2018-03-30T08:27:33.747Z,14.23
2018-03-30T08:28:33.766Z,15.67
2018-03-30T08:29:33.774Z,16.61
2018-03-30T08:30:33.798Z,17.14
2018-03-30T08:31:33.845Z,16.24
2018-03-30T08:32:33.854Z,14.66
2018-03-30T08:33:33.868Z,14.18
2018-03-30T08:34:33.889Z,15.14
2018-03-30T08:35:33.908Z,15.49
2018-03-30T08:36:33.931Z,15.67
2018-03-30T08:37:33.984Z,15.91
2018-03-30T08:38:33.969Z,15.92
2018-03-30T08:39:34.073Z,15.59
2018-03-30T08:40:34.003Z,14.92
2018-03-30T08:41:34.038Z,14.66
2018-03-30T08:42:34.056Z,14.50
2018-03-30T08:43:34.066Z,14.55
2018-03-30T08:44:34.144Z,14.45
2018-03-30T08:45:34.165Z,14.43
2018-03-30T08:46:34.133Z,14.20
2018-03-30T08:47:34.146Z,14.32
2018-03-30T08:48:34.161Z,14.15
2018-03-30T08:49:34.189Z,14.40
2018-03-30T08:50:34.210Z,14.37
2018-03-30T08:51:34.217Z,13.92
2018-03-30T08:52:34.235Z,13.27
2018-03-30T08:53:34.276Z,13.56
2018-03-30T08:54:34.274Z,13.37
2018-03-30T08:55:34.299Z,13.53
2018-03-30T08:56:34.314Z,13.25
2018-03-30T08:57:34.362Z,12.85
2018-03-30T08:58:34.389Z,12.53
2018-03-30T08:59:34.387Z,12.97
2018-03-30T09:00:34.407Z,12.83
2018-03-30T09:01:34.434Z,11.83
2018-03-30T09:02:34.422Z,11.48
2018-03-30T09:03:34.443Z,11.40
2018-03-30T09:04:34.466Z,11.50
2018-03-30T09:05:34.481Z,12.20
2018-03-30T09:06:34.494Z,11.78
2018-03-30T09:07:34.522Z,12.03
2018-03-30T09:08:34.529Z,11.77
2018-03-30T09:09:34.553Z,11.41
2018-03-30T09:10:34.567Z,11.40
2018-03-30T09:11:34.588Z,11.70
2018-03-30T09:12:34.609Z,11.47
2018-03-30T09:13:34.623Z,11.41
2018-03-30T09:14:34.647Z,11.68
2018-03-30T09:15:34.710Z,11.68
2018-03-30T09:16:34.668Z,11.91
2018-03-30T09:17:34.694Z,12.17
2018-03-30T09:18:34.705Z,12.04
2018-03-30T09:19:34.727Z,12.03
2018-03-30T09:20:34.799Z,12.04
2018-03-30T09:21:34.754Z,12.03
2018-03-30T09:22:34.791Z,12.29
2018-03-30T09:23:34.811Z,12.62
2018-03-30T09:24:34.810Z,12.83
2018-03-30T09:25:34.830Z,12.95
2018-03-30T09:26:34.848Z,13.28
2018-03-30T09:27:34.866Z,12.64
2018-03-30T09:28:34.905Z,12.70
2018-03-30T09:29:34.904Z,12.31
2018-03-30T09:30:34.924Z,12.21
2018-03-30T09:31:34.939Z,12.25
2018-03-30T09:32:34.963Z,12.43
2018-03-30T09:33:34.987Z,12.70
2018-03-30T09:34:34.996Z,13.09
2018-03-30T09:35:35.028Z,12.76
2018-03-30T09:36:35.020Z,13.09
2018-03-30T09:37:35.045Z,13.13
2018-03-30T09:38:35.068Z,13.57
2018-03-30T09:39:35.074Z,13.87
2018-03-30T09:40:35.090Z,13.81
2018-03-30T09:41:35.131Z,13.78
2018-03-30T09:42:35.144Z,13.95
2018-03-30T09:43:35.168Z,13.97
2018-03-30T09:44:35.169Z,13.86
2018-03-30T09:45:35.194Z,14.17
2018-03-30T09:46:35.212Z,13.71
2018-03-30T09:47:35.217Z,13.39
2018-03-30T09:48:35.283Z,13.05
2018-03-30T09:49:35.275Z,12.94
2018-03-30T09:50:35.309Z,12.94
2018-03-30T09:51:35.305Z,12.98
2018-03-30T09:52:35.339Z,13.19
2018-03-30T09:53:35.342Z,12.86
2018-03-30T09:54:35.353Z,13.16
2018-03-30T09:55:35.370Z,13.31
2018-03-30T09:56:35.399Z,13.59
2018-03-30T09:57:35.401Z,13.57
2018-03-30T09:58:35.425Z,13.31
2018-03-30T09:59:35.574Z,13.33
2018-03-30T10:00:35.488Z,13.74
2018-03-30T10:01:35.471Z,13.52
2018-03-30T10:02:35.525Z,13.23
2018-03-30T10:03:35.519Z,13.09
2018-03-30T10:04:35.533Z,12.98
2018-03-30T10:05:35.559Z,13.37
2018-03-30T10:06:35.582Z,13.38
2018-03-30T10:07:35.598Z,13.56
2018-03-30T10:08:35.605Z,13.95
2018-03-30T10:09:35.629Z,14.23
2018-03-30T10:10:35.669Z,14.30
2018-03-30T10:11:35.747Z,14.79
2018-03-30T10:12:35.677Z,14.62
2018-03-30T10:13:35.701Z,14.66
2018-03-30T10:14:35.704Z,14.33
2018-03-30T10:15:35.762Z,14.77
2018-03-30T10:16:35.752Z,14.18
2018-03-30T10:17:35.794Z,14.35
2018-03-30T10:18:35.792Z,14.58
2018-03-30T10:19:35.810Z,14.69
2018-03-30T10:20:35.908Z,14.94
2018-03-30T10:21:35.854Z,15.02
2018-03-30T10:22:35.856Z,15.10
2018-03-30T10:23:35.875Z,15.00
2018-03-30T10:24:35.902Z,15.27
2018-03-30T10:25:35.947Z,15.15
2018-03-30T10:26:35.930Z,14.97
2018-03-30T10:27:35.973Z,14.72
2018-03-30T10:28:35.993Z,14.30
2018-03-30T10:29:36.005Z,14.58
2018-03-30T10:30:36.023Z,14.94
2018-03-30T10:31:36.056Z,14.79
2018-03-30T10:32:36.040Z,14.85
2018-03-30T10:33:36.086Z,14.73
2018-03-30T10:34:36.081Z,14.72
2018-03-30T10:35:36.137Z,14.70
2018-03-30T10:36:36.129Z,14.97
2018-03-30T10:37:36.145Z,14.94
2018-03-30T10:38:36.186Z,15.15
2018-03-30T10:39:36.169Z,14.73
2018-03-30T10:40:36.207Z,15.21
2018-03-30T10:41:36.213Z,15.49
2018-03-30T10:42:36.244Z,15.44
2018-03-30T10:43:36.304Z,15.68
2018-03-30T10:44:36.308Z,15.58
2018-03-30T10:45:36.301Z,15.40
2018-03-30T10:46:36.323Z,14.94
2018-03-30T10:47:36.343Z,15.04
2018-03-30T10:48:36.361Z,15.54
2018-03-30T10:49:36.376Z,15.46
2018-03-30T10:50:36.390Z,14.99
2018-03-30T10:51:36.403Z,14.35
2018-03-30T10:52:36.420Z,14.77
2018-03-30T10:53:36.449Z,14.84
2018-03-30T10:54:36.470Z,14.86
2018-03-30T10:55:36.499Z,14.92
2018-03-30T10:56:36.503Z,15.25
2018-03-30T10:57:36.532Z,15.03
2018-03-30T10:58:36.547Z,15.07
2018-03-30T10:59:36.623Z,14.82
2018-03-30T11:00:36.581Z,14.69
2018-03-30T11:01:36.602Z,14.92
2018-03-30T11:02:36.621Z,14.84
2018-03-30T11:03:36.717Z,14.62
2018-03-30T11:04:36.651Z,14.65
2018-03-30T11:05:36.676Z,14.63
2018-03-30T11:06:36.694Z,14.54
2018-03-30T11:07:36.730Z,14.14
2018-03-30T11:08:36.736Z,13.85
2018-03-30T11:09:36.758Z,14.11
2018-03-30T11:10:36.777Z,14.18
2018-03-30T11:11:36.816Z,14.89
2018-03-30T11:12:36.814Z,14.55
2018-03-30T11:13:36.873Z,13.93
2018-03-30T11:14:36.878Z,14.12
2018-03-30T11:15:36.873Z,14.25
2018-03-30T11:16:36.893Z,14.15
2018-03-30T11:17:36.913Z,14.20
2018-03-30T11:18:36.918Z,14.11
2018-03-30T11:19:36.935Z,14.10
2018-03-30T11:20:37.014Z,14.00
2018-03-30T11:21:37.015Z,14.12
2018-03-30T11:22:37.125Z,14.25
2018-03-30T11:23:37.020Z,14.18
2018-03-30T11:24:37.065Z,14.33
2018-03-30T11:25:37.089Z,14.18
2018-03-30T11:26:37.065Z,13.93
2018-03-30T11:27:37.113Z,14.04
2018-03-30T11:28:37.160Z,14.14
2018-03-30T11:29:37.190Z,14.30
2018-03-30T11:30:37.152Z,13.89
2018-03-30T11:31:37.167Z,13.81
2018-03-30T11:32:37.186Z,13.83
2018-03-30T11:33:37.217Z,14.32
2018-03-30T11:34:37.279Z,14.25
2018-03-30T11:35:37.242Z,14.40
2018-03-30T11:36:37.333Z,14.65
2018-03-30T11:37:37.300Z,14.97
2018-03-30T11:38:37.329Z,14.97
2018-03-30T11:39:37.317Z,15.27
2018-03-30T11:40:37.338Z,15.51
2018-03-30T11:41:37.366Z,14.92
2018-03-30T11:42:37.367Z,14.65
2018-03-30T11:43:37.395Z,15.00
2018-03-30T11:44:37.470Z,14.91
2018-03-30T11:45:37.425Z,14.81
2018-03-30T11:46:37.440Z,14.91
2018-03-30T11:47:37.469Z,14.88
2018-03-30T11:48:37.512Z,14.73
2018-03-30T11:49:37.520Z,14.68
2018-03-30T11:50:37.538Z,14.79
2018-03-30T11:51:37.536Z,14.88
2018-03-30T11:52:37.559Z,14.58
2018-03-30T11:53:37.583Z,14.32
2018-03-30T11:54:37.607Z,14.51
2018-03-30T11:55:37.619Z,14.85
2018-03-30T11:56:37.651Z,15.36
2018-03-30T11:57:37.651Z,15.25
2018-03-30T11:58:37.675Z,15.17
2018-03-30T11:59:37.690Z,15.15
2018-03-30T12:00:37.710Z,15.18
2018-03-30T12:01:37.732Z,14.91
2018-03-30T12:02:37.748Z,15.14
2018-03-30T12:03:37.770Z,15.03
2018-03-30T12:04:37.792Z,15.44
2018-03-30T12:05:37.828Z,15.49
2018-03-30T12:06:37.847Z,15.22
2018-03-30T12:07:37.847Z,15.18
2018-03-30T12:08:37.867Z,14.88
2018-03-30T12:09:37.878Z,14.63
2018-03-30T12:10:37.909Z,14.33
2018-03-30T12:11:37.926Z,14.45
2018-03-30T12:12:37.950Z,14.50
2018-03-30T12:13:37.959Z,14.51
2018-03-30T12:14:37.985Z,14.88
2018-03-30T12:15:38.003Z,14.70
2018-03-30T12:16:38.056Z,14.35
2018-03-30T12:17:38.078Z,14.12
2018-03-30T12:18:38.062Z,13.99
2018-03-30T12:19:38.090Z,13.97
2018-03-30T12:20:38.099Z,13.96
2018-03-30T12:21:38.104Z,13.97
2018-03-30T12:22:38.141Z,13.81
2018-03-30T12:23:38.142Z,13.86
2018-03-30T12:24:38.162Z,14.11
2018-03-30T12:25:38.181Z,14.04
2018-03-30T12:26:38.196Z,14.07
2018-03-30T12:27:38.222Z,14.14
2018-03-30T12:28:38.233Z,14.29
2018-03-30T12:29:38.262Z,14.30
2018-03-30T12:30:38.266Z,14.33
2018-03-30T12:31:38.294Z,14.51
2018-03-30T12:32:38.332Z,14.40
2018-03-30T12:33:38.326Z,14.70
2018-03-30T12:34:38.348Z,14.84
2018-03-30T12:35:38.360Z,15.22
2018-03-30T12:36:38.381Z,15.09
2018-03-30T12:37:38.397Z,15.07
2018-03-30T12:38:38.433Z,14.97
2018-03-30T12:39:38.482Z,15.39
2018-03-30T12:40:38.524Z,15.70
2018-03-30T12:41:38.495Z,15.68
2018-03-30T12:42:38.499Z,15.94
2018-03-30T12:43:38.509Z,16.20
2018-03-30T12:44:38.573Z,15.94
2018-03-30T12:45:38.546Z,15.59
2018-03-30T12:46:38.589Z,15.95
2018-03-30T12:47:38.606Z,15.49
2018-03-30T12:48:38.606Z,15.07
2018-03-30T12:49:38.649Z,15.33
2018-03-30T12:50:38.643Z,15.44
2018-03-30T12:51:38.662Z,15.40
2018-03-30T12:52:38.704Z,15.39
2018-03-30T12:53:38.709Z,15.36
2018-03-30T12:54:38.712Z,14.96
2018-03-30T12:55:38.754Z,14.84
2018-03-30T12:56:38.783Z,15.25
2018-03-30T12:57:38.847Z,15.44
2018-03-30T12:58:38.797Z,15.14
2018-03-30T12:59:38.825Z,15.24
2018-03-30T13:00:38.839Z,15.21
2018-03-30T13:01:38.852Z,15.24
2018-03-30T13:02:38.874Z,15.21
2018-03-30T13:03:38.900Z,15.28
2018-03-30T13:04:38.910Z,15.18
2018-03-30T13:05:38.927Z,14.79
2018-03-30T13:06:38.968Z,14.82
2018-03-30T13:07:39.018Z,14.88